Au Sable, Michigan
Current Conditions -  °F | °C
As of 7:33 AM on Sunday 21 Dec 2014 (Local Time) from KOSC Reporting Station
Overcast Overcast  
Wind Chill: 23°   Ceiling: 3700
Heat Index: 23°   Visibility: 7mi
Dew Point: 22°   Wind: 0mph
Humidity: 96%   Direction: NA
Pressure: 30.28"   Gusts: NA
Location:  44.4539°N, 83.4813°W
Report Text: KOSC 211233Z AUTO 00000KT 7SM OVC037 M05/M05 A3028 RMK AO2 T10491055
Loading
Personal Weather Stations






























Interactive Weather Map New forecast layout! Learn more

10-Day Weather Forecast

Advertisements
Track Severe Weather on mobile